Time;durP1;ratioP1;P1;durP2;ratioP2;P2;SDS_P1;SDS_P2;PMS_P1;PMS_P2;Temp;Humidity;BMP_temperature;BMP_pressure;BME280_temperature;BME280_humidity;BME280_pressure;Samples;Min_cycle;Max_cycle;Signal;HPM_P1;HPM_P2
2021/05/29 00:01:21;;;;;;;13.85;8.80;;;;;;;;;;5042591;28;20088;-81
2021/05/29 00:03:56;;;;;;;16.38;9.82;;;;;;;;;;5037621;28;20495;-81
2021/05/29 00:06:26;;;;;;;16.70;10.02;;;;;;;;;;5041032;28;20053;-82
2021/05/29 00:08:53;;;;;;;17.27;11.50;;;;;;;;;;5039101;28;20050;-81
2021/05/29 00:11:20;;;;;;;21.20;12.02;;;;;;;;;;5037530;28;20262;-82
2021/05/29 00:13:47;;;;;;;25.42;12.13;;;;;;;;;;5036402;28;20080;-82
2021/05/29 00:16:15;;;;;;;23.60;13.00;;;;;;;;;;5036469;28;20100;-81
2021/05/29 00:18:41;;;;;;;18.20;12.80;;;;;;;;;;5036120;28;20437;-80
2021/05/29 00:21:24;;;;;;;20.90;10.63;;;;;;;;;;5038006;28;20045;-81
2021/05/29 00:23:57;;;;;;;17.63;10.63;;;;;;;;;;5044461;28;20049;-80
2021/05/29 00:26:27;;;;;;;19.10;10.20;;;;;;;;;;5045343;28;20422;-81
2021/05/29 00:28:54;;;;;;;18.67;9.98;;;;;;;;;;5045139;28;20521;-80
2021/05/29 00:31:24;;;;;;;15.95;9.65;;;;;;;;;;5041478;28;20046;-83
2021/05/29 00:33:51;;;;;;;19.48;10.15;;;;;;;;;;5038131;28;20065;-80
2021/05/29 00:36:17;;;;;;;18.08;10.73;;;;;;;;;;5038989;28;20456;-81
2021/05/29 00:38:58;;;;;;;20.80;11.15;;;;;;;;;;5038593;28;20056;-81
2021/05/29 00:41:25;;;;;;;16.67;10.32;;;;;;;;;;5038686;28;20060;-81
2021/05/29 00:43:55;;;;;;;17.52;10.35;;;;;;;;;;5037872;28;20088;-81
2021/05/29 00:46:21;;;;;;;17.80;9.55;;;;;;;;;;5038821;28;20096;-82
2021/05/29 00:48:52;;;;;;;16.25;8.88;;;;;;;;;;5037650;28;20049;-82
2021/05/29 00:51:19;;;;;;;15.07;9.88;;;;;;;;;;4997697;28;20054;-81
2021/05/29 00:53:47;;;;;;;14.40;9.00;;;;;;;;;;4998619;28;20365;-82
2021/05/29 00:56:13;;;;;;;16.70;9.10;;;;;;;;;;5001076;28;20066;-81
2021/05/29 00:58:41;;;;;;;14.27;9.05;;;;;;;;;;4999822;28;20051;-81
2021/05/29 01:01:08;;;;;;;16.27;9.40;;;;;;;;;;5000893;28;20128;-81
2021/05/29 01:03:37;;;;;;;16.25;8.40;;;;;;;;;;5003207;28;20085;-82
2021/05/29 01:06:04;;;;;;;16.23;7.95;;;;;;;;;;4998706;28;20057;-82
2021/05/29 01:08:31;;;;;;;13.13;7.93;;;;;;;;;;4998840;28;20062;-82
2021/05/29 01:10:57;;;;;;;12.30;7.82;;;;;;;;;;5003447;28;20096;-81
2021/05/29 01:13:32;;;;;;;20.40;7.65;;;;;;;;;;5005885;28;20050;-82
2021/05/29 01:16:16;;;;;;;17.90;7.68;;;;;;;;;;4997192;28;20054;-82
2021/05/29 01:18:49;;;;;;;18.05;8.40;;;;;;;;;;4996511;28;20050;-81
2021/05/29 01:21:19;;;;;;;18.48;8.05;;;;;;;;;;4996400;28;20073;-81
2021/05/29 01:23:48;;;;;;;17.77;7.68;;;;;;;;;;4998201;28;20128;-82
2021/05/29 01:26:15;;;;;;;15.32;8.43;;;;;;;;;;4997352;28;20054;-82
2021/05/29 01:28:45;;;;;;;13.48;8.63;;;;;;;;;;4998866;28;20074;-82
2021/05/29 01:31:13;;;;;;;16.73;9.30;;;;;;;;;;4996968;28;20050;-82
2021/05/29 01:33:54;;;;;;;15.35;8.88;;;;;;;;;;4997429;28;20139;-82
2021/05/29 01:36:22;;;;;;;14.98;8.05;;;;;;;;;;4996976;28;20054;-82
2021/05/29 01:38:48;;;;;;;10.45;6.43;;;;;;;;;;4995864;28;20419;-82
2021/05/29 01:41:16;;;;;;;11.32;7.03;;;;;;;;;;4998085;28;20423;-82
2021/05/29 01:43:43;;;;;;;13.20;6.97;;;;;;;;;;4996842;28;20057;-82
2021/05/29 01:46:11;;;;;;;15.30;6.63;;;;;;;;;;4996959;28;20377;-82
2021/05/29 01:48:47;;;;;;;11.38;6.30;;;;;;;;;;4997345;28;20343;-82
2021/05/29 01:51:24;;;;;;;8.40;5.40;;;;;;;;;;5034695;28;20049;-82
2021/05/29 01:53:51;;;;;;;10.40;5.57;;;;;;;;;;5038024;28;20053;-82
2021/05/29 01:56:19;;;;;;;12.57;6.10;;;;;;;;;;5038547;28;20654;-82
2021/05/29 01:58:46;;;;;;;15.13;7.32;;;;;;;;;;5041666;28;20049;-82
2021/05/29 02:01:13;;;;;;;11.80;7.05;;;;;;;;;;5044980;28;20407;-82
2021/05/29 02:03:49;;;;;;;8.98;5.90;;;;;;;;;;5044356;28;20065;-81
2021/05/29 02:06:22;;;;;;;10.02;6.28;;;;;;;;;;5045908;28;20045;-82
2021/05/29 02:08:51;;;;;;;14.45;6.95;;;;;;;;;;5041506;28;20064;-81
2021/05/29 02:11:18;;;;;;;10.38;5.55;;;;;;;;;;5036720;28;20454;-81
2021/05/29 02:13:50;;;;;;;13.15;6.63;;;;;;;;;;5038719;28;20056;-82
2021/05/29 02:16:20;;;;;;;12.80;6.63;;;;;;;;;;5038488;28;20136;-82
2021/05/29 02:18:50;;;;;;;11.68;6.57;;;;;;;;;;5037524;28;20140;-82
2021/05/29 02:21:16;;;;;;;16.95;7.88;;;;;;;;;;5043124;28;20053;-81
2021/05/29 02:23:50;;;;;;;11.25;6.85;;;;;;;;;;5044437;28;20088;-82
2021/05/29 02:26:19;;;;;;;13.55;7.60;;;;;;;;;;5044781;28;20402;-82
2021/05/29 02:28:50;;;;;;;12.48;7.22;;;;;;;;;;5041342;28;20045;-81
2021/05/29 02:31:20;;;;;;;14.63;7.03;;;;;;;;;;5051583;28;20053;-82
2021/05/29 02:33:47;;;;;;;13.38;6.00;;;;;;;;;;5055424;28;20053;-82
2021/05/29 02:36:20;;;;;;;15.85;6.53;;;;;;;;;;5040230;28;20042;-82
2021/05/29 02:38:46;;;;;;;14.48;6.93;;;;;;;;;;5038404;28;20045;-82
2021/05/29 02:41:20;;;;;;;13.80;6.38;;;;;;;;;;5037151;28;20050;-82
2021/05/29 02:43:50;;;;;;;12.98;6.18;;;;;;;;;;5036529;28;20053;-82
2021/05/29 02:46:20;;;;;;;9.75;6.57;;;;;;;;;;5039402;28;20049;-82
2021/05/29 02:48:46;;;;;;;14.15;6.82;;;;;;;;;;5039210;28;20099;-82
2021/05/29 02:51:21;;;;;;;10.20;5.97;;;;;;;;;;5038817;28;20130;-82
2021/05/29 02:53:48;;;;;;;10.18;6.65;;;;;;;;;;5037250;28;20111;-81
2021/05/29 02:56:21;;;;;;;14.35;7.18;;;;;;;;;;5038467;28;20057;-82
2021/05/29 02:58:47;;;;;;;15.18;7.55;;;;;;;;;;5037719;28;20398;-82
2021/05/29 03:01:14;;;;;;;12.48;7.47;;;;;;;;;;5037697;28;20049;-81
2021/05/29 03:03:41;;;;;;;17.80;6.97;;;;;;;;;;5036279;28;20045;-82
2021/05/29 03:06:08;;;;;;;10.63;5.93;;;;;;;;;;5037093;28;20289;-82
2021/05/29 03:08:34;;;;;;;8.55;5.80;;;;;;;;;;5036790;28;20053;-82
2021/05/29 03:11:14;;;;;;;8.50;5.50;;;;;;;;;;5036074;28;20057;-83
2021/05/29 03:13:40;;;;;;;8.60;5.65;;;;;;;;;;5037339;28;20061;-82
2021/05/29 03:16:07;;;;;;;16.75;6.78;;;;;;;;;;5034139;28;20353;-82
2021/05/29 03:18:34;;;;;;;12.73;6.30;;;;;;;;;;5036351;28;20084;-82
2021/05/29 03:21:01;;;;;;;13.05;5.68;;;;;;;;;;5035535;28;20123;-82
2021/05/29 03:23:27;;;;;;;11.55;5.68;;;;;;;;;;5040508;28;20060;-82
2021/05/29 03:25:54;;;;;;;16.05;6.70;;;;;;;;;;5045470;28;20109;-82
2021/05/29 03:28:21;;;;;;;11.95;6.82;;;;;;;;;;5043131;28;20425;-82
2021/05/29 03:30:48;;;;;;;13.50;6.88;;;;;;;;;;5040171;28;20045;-82
2021/05/29 03:33:14;;;;;;;11.55;6.30;;;;;;;;;;5040145;28;20243;-80
2021/05/29 03:35:41;;;;;;;12.18;6.78;;;;;;;;;;5042436;28;20056;-80
2021/05/29 03:38:11;;;;;;;14.10;6.75;;;;;;;;;;5044966;28;20058;-81
2021/05/29 03:40:38;;;;;;;9.65;5.22;;;;;;;;;;5043470;28;20258;-82
2021/05/29 03:43:05;;;;;;;8.77;5.38;;;;;;;;;;5046056;28;20088;-80
2021/05/29 03:45:31;;;;;;;9.82;5.65;;;;;;;;;;5046539;28;20061;-82
2021/05/29 03:47:58;;;;;;;12.35;6.50;;;;;;;;;;5045467;28;20045;-80
2021/05/29 03:50:25;;;;;;;10.52;5.30;;;;;;;;;;5042803;28;20061;-81
2021/05/29 03:52:52;;;;;;;11.40;5.55;;;;;;;;;;5040996;28;20041;-81
2021/05/29 03:55:20;;;;;;;12.82;5.93;;;;;;;;;;5040923;28;20049;-82
2021/05/29 03:57:47;;;;;;;16.10;6.43;;;;;;;;;;5040331;28;20053;-82
2021/05/29 04:00:15;;;;;;;12.55;5.82;;;;;;;;;;5037021;28;20060;-82
2021/05/29 04:02:41;;;;;;;8.10;5.30;;;;;;;;;;5038854;28;20261;-82
2021/05/29 04:05:13;;;;;;;17.13;6.03;;;;;;;;;;5039414;28;20049;-82
2021/05/29 04:07:40;;;;;;;11.52;6.55;;;;;;;;;;5039008;28;20260;-82
2021/05/29 04:10:07;;;;;;;13.52;4.93;;;;;;;;;;5038112;28;20434;-82
2021/05/29 04:12:34;;;;;;;12.75;5.75;;;;;;;;;;5038394;28;20092;-81
2021/05/29 04:15:10;;;;;;;11.20;5.50;;;;;;;;;;5041306;28;20061;-81
2021/05/29 04:17:36;;;;;;;8.80;5.50;;;;;;;;;;5043222;28;20134;-82
2021/05/29 04:20:03;;;;;;;13.63;6.22;;;;;;;;;;5037864;28;20225;-81
2021/05/29 04:22:33;;;;;;;11.90;6.15;;;;;;;;;;5038232;28;20394;-81
2021/05/29 04:25:07;;;;;;;9.77;6.03;;;;;;;;;;5037616;28;20107;-81
2021/05/29 04:27:34;;;;;;;9.75;6.25;;;;;;;;;;5037531;28;20053;-81
2021/05/29 04:30:05;;;;;;;8.55;5.50;;;;;;;;;;5037735;28;20180;-80
2021/05/29 04:32:35;;;;;;;11.68;6.50;;;;;;;;;;5024958;28;20329;-81
2021/05/29 04:35:03;;;;;;;11.13;7.13;;;;;;;;;;5034970;28;20130;-80
2021/05/29 04:37:29;;;;;;;12.05;6.72;;;;;;;;;;5033972;28;20417;-80
2021/05/29 04:39:56;;;;;;;13.32;7.05;;;;;;;;;;5037683;28;20053;-80
2021/05/29 04:42:23;;;;;;;10.38;6.32;;;;;;;;;;5032592;28;20414;-80
2021/05/29 04:44:52;;;;;;;13.63;6.85;;;;;;;;;;5036194;28;20111;-80
2021/05/29 04:47:19;;;;;;;11.95;6.88;;;;;;;;;;5033278;28;20119;-80
2021/05/29 04:50:07;;;;;;;9.55;5.15;;;;;;;;;;5032162;28;20045;-81
2021/05/29 04:52:34;;;;;;;8.85;5.00;;;;;;;;;;5036868;28;20057;-81
2021/05/29 04:55:01;;;;;;;11.38;5.53;;;;;;;;;;5036653;28;20053;-81
2021/05/29 04:57:28;;;;;;;10.63;5.13;;;;;;;;;;5036797;28;20064;-80
2021/05/29 04:59:54;;;;;;;13.40;5.20;;;;;;;;;;5038812;28;20065;-81
2021/05/29 05:02:24;;;;;;;10.13;5.57;;;;;;;;;;5038309;28;20061;-81
2021/05/29 05:04:51;;;;;;;11.00;5.80;;;;;;;;;;5037490;28;20053;-81
2021/05/29 05:07:25;;;;;;;18.50;6.70;;;;;;;;;;5035209;28;20088;-81
2021/05/29 05:09:51;;;;;;;9.88;6.07;;;;;;;;;;5038015;28;20096;-81
2021/05/29 05:12:21;;;;;;;11.45;4.60;;;;;;;;;;5038069;28;20160;-81
2021/05/29 05:14:50;;;;;;;10.45;4.55;;;;;;;;;;5037042;28;20057;-81
2021/05/29 05:17:17;;;;;;;7.80;5.00;;;;;;;;;;5036997;28;20060;-81
2021/05/29 05:19:44;;;;;;;8.88;4.97;;;;;;;;;;5025622;28;20050;-81
2021/05/29 05:22:10;;;;;;;11.70;5.15;;;;;;;;;;5016173;28;20064;-81
2021/05/29 05:24:37;;;;;;;14.45;5.80;;;;;;;;;;5016732;28;20050;-81
2021/05/29 05:27:03;;;;;;;8.68;5.35;;;;;;;;;;5018473;28;20050;-81
2021/05/29 05:29:33;;;;;;;13.35;5.78;;;;;;;;;;5033753;28;20060;-81
2021/05/29 05:32:00;;;;;;;8.50;5.70;;;;;;;;;;5036154;28;20041;-81
2021/05/29 05:34:26;;;;;;;10.65;5.75;;;;;;;;;;5036729;28;20049;-81
2021/05/29 05:36:53;;;;;;;8.57;5.38;;;;;;;;;;5037854;28;20268;-82
2021/05/29 05:39:26;;;;;;;12.70;5.75;;;;;;;;;;5038858;28;20413;-82
2021/05/29 05:41:52;;;;;;;10.32;5.78;;;;;;;;;;5041461;28;20049;-81
2021/05/29 05:44:19;;;;;;;10.95;5.75;;;;;;;;;;5053681;28;20079;-81
2021/05/29 05:46:46;;;;;;;9.70;5.32;;;;;;;;;;5047620;28;20053;-82
2021/05/29 05:49:12;;;;;;;12.90;5.75;;;;;;;;;;5037910;28;20056;-82
2021/05/29 05:51:39;;;;;;;12.45;5.13;;;;;;;;;;5040465;28;20049;-82
2021/05/29 05:54:05;;;;;;;8.25;5.65;;;;;;;;;;5044744;28;20065;-81
2021/05/29 05:56:32;;;;;;;13.55;5.47;;;;;;;;;;5043373;28;20380;-81
2021/05/29 05:58:59;;;;;;;11.75;5.13;;;;;;;;;;5043571;28;20072;-82
2021/05/29 06:01:26;;;;;;;11.10;4.90;;;;;;;;;;5040288;28;20147;-81
2021/05/29 06:03:56;;;;;;;9.50;5.13;;;;;;;;;;5020834;28;20477;-82
2021/05/29 06:06:23;;;;;;;9.52;5.10;;;;;;;;;;5016639;28;20311;-81
2021/05/29 06:08:50;;;;;;;13.88;6.75;;;;;;;;;;5016141;28;20295;-82
2021/05/29 06:11:16;;;;;;;8.55;5.90;;;;;;;;;;5016794;28;20060;-82
2021/05/29 06:19:19;;;;;;;11.00;5.97;;;;;;;;;;4993479;28;20088;-80
2021/05/29 06:21:48;;;;;;;8.20;6.10;;;;;;;;;;4993770;28;20068;-80
2021/05/29 06:24:16;;;;;;;14.65;5.15;;;;;;;;;;5006425;28;20313;-81
2021/05/29 06:26:43;;;;;;;7.80;4.85;;;;;;;;;;5015110;28;20054;-81
2021/05/29 06:29:10;;;;;;;7.45;4.32;;;;;;;;;;5031399;28;20057;-81
2021/05/29 06:31:36;;;;;;;10.48;5.18;;;;;;;;;;5035744;28;20060;-81
2021/05/29 06:34:06;;;;;;;9.18;5.30;;;;;;;;;;5034692;28;20053;-82
2021/05/29 06:36:33;;;;;;;9.70;4.90;;;;;;;;;;5032673;28;20038;-82
2021/05/29 06:39:00;;;;;;;10.15;5.40;;;;;;;;;;5031148;28;20054;-82
2021/05/29 06:41:26;;;;;;;15.02;5.55;;;;;;;;;;5028908;28;20092;-83
2021/05/29 06:43:53;;;;;;;7.75;4.78;;;;;;;;;;5031974;28;20057;-81
2021/05/29 06:46:20;;;;;;;12.13;4.50;;;;;;;;;;5034014;28;20049;-81
2021/05/29 06:48:47;;;;;;;10.93;4.68;;;;;;;;;;5034552;28;20061;-81
2021/05/29 06:51:32;;;;;;;12.00;4.90;;;;;;;;;;5033753;28;20614;-81
2021/05/29 06:54:06;;;;;;;9.38;4.55;;;;;;;;;;5038168;28;20569;-81
2021/05/29 06:59:19;;;;;;;10.52;5.38;;;;;;;;;;5033442;28;20060;-81
2021/05/29 07:01:45;;;;;;;10.48;5.20;;;;;;;;;;5034303;28;20050;-80
2021/05/29 07:04:13;;;;;;;8.18;5.15;;;;;;;;;;5033627;28;20085;-83
2021/05/29 07:06:39;;;;;;;8.18;5.25;;;;;;;;;;5033044;28;20103;-81
2021/05/29 07:09:06;;;;;;;11.80;5.95;;;;;;;;;;5030378;28;20140;-82
2021/05/29 07:11:37;;;;;;;10.60;5.00;;;;;;;;;;5032740;28;20045;-82
2021/05/29 07:14:05;;;;;;;11.15;4.68;;;;;;;;;;5031019;28;20064;-82
2021/05/29 07:16:49;;;;;;;9.30;5.03;;;;;;;;;;5032101;28;20253;-82
2021/05/29 07:19:20;;;;;;;9.93;4.88;;;;;;;;;;5032455;28;20139;-81
2021/05/29 07:21:47;;;;;;;7.70;4.47;;;;;;;;;;5035542;28;20053;-80
2021/05/29 07:24:14;;;;;;;10.95;5.40;;;;;;;;;;5019203;28;20056;-81
2021/05/29 07:27:15;;;;;;;10.40;4.32;;;;;;;;;;5035553;28;20278;-82
2021/05/29 07:29:52;;;;;;;9.90;5.20;;;;;;;;;;5033341;28;20049;-80
2021/05/29 07:32:18;;;;;;;9.00;4.20;;;;;;;;;;5032732;28;20045;-81
2021/05/29 07:34:45;;;;;;;8.75;4.22;;;;;;;;;;5032679;28;20210;-81
2021/05/29 07:37:17;;;;;;;8.27;4.07;;;;;;;;;;5034011;28;20050;-82
2021/05/29 07:39:43;;;;;;;8.15;5.28;;;;;;;;;;5029837;28;20053;-82
2021/05/29 07:42:16;;;;;;;7.05;4.20;;;;;;;;;;5017205;28;20057;-81
2021/05/29 07:44:46;;;;;;;8.40;3.88;;;;;;;;;;5015299;28;20067;-81
2021/05/29 07:47:16;;;;;;;10.25;4.10;;;;;;;;;;5038969;28;20058;-81
2021/05/29 07:49:43;;;;;;;10.57;4.40;;;;;;;;;;5043419;28;20113;-82
2021/05/29 07:52:38;;;;;;;9.27;4.47;;;;;;;;;;5041333;28;20054;-83
2021/05/29 07:55:07;;;;;;;9.40;4.88;;;;;;;;;;5032272;28;20136;-81
2021/05/29 07:57:34;;;;;;;10.50;5.35;;;;;;;;;;5037294;28;20041;-82
2021/05/29 08:00:03;;;;;;;9.32;4.95;;;;;;;;;;5042804;28;20227;-80
2021/05/29 08:02:30;;;;;;;7.85;3.90;;;;;;;;;;5039704;28;20061;-80
2021/05/29 08:04:58;;;;;;;10.75;4.55;;;;;;;;;;5040045;28;20201;-80
2021/05/29 08:07:24;;;;;;;10.10;4.60;;;;;;;;;;5035705;28;20099;-81
2021/05/29 08:09:51;;;;;;;6.68;4.25;;;;;;;;;;5036083;28;20057;-81
2021/05/29 08:12:20;;;;;;;12.15;5.82;;;;;;;;;;5039989;28;20185;-82
2021/05/29 08:14:47;;;;;;;13.05;5.28;;;;;;;;;;5039570;28;20041;-82
2021/05/29 08:17:13;;;;;;;8.07;5.32;;;;;;;;;;5038164;28;20057;-81
2021/05/29 08:19:40;;;;;;;8.52;4.25;;;;;;;;;;5044461;28;20049;-82
2021/05/29 08:22:10;;;;;;;8.60;4.47;;;;;;;;;;5046303;28;20050;-83
2021/05/29 08:24:36;;;;;;;11.23;4.88;;;;;;;;;;5041911;28;20271;-82
2021/05/29 08:27:10;;;;;;;8.73;4.72;;;;;;;;;;5040778;28;20061;-81
2021/05/29 08:29:40;;;;;;;10.40;5.00;;;;;;;;;;5042466;28;20045;-82
2021/05/29 08:32:09;;;;;;;8.23;4.80;;;;;;;;;;5025839;28;20109;-81
2021/05/29 08:34:39;;;;;;;8.40;4.75;;;;;;;;;;5034248;28;20075;-81
2021/05/29 08:37:18;;;;;;;9.27;4.88;;;;;;;;;;5036132;28;20045;-85
2021/05/29 08:39:44;;;;;;;8.13;4.60;;;;;;;;;;5039812;28;20053;-82
2021/05/29 08:42:11;;;;;;;8.55;4.90;;;;;;;;;;5035060;28;20053;-84
2021/05/29 08:44:38;;;;;;;8.48;4.68;;;;;;;;;;5037369;28;20174;-82
2021/05/29 08:47:07;;;;;;;9.45;4.72;;;;;;;;;;5040445;28;20081;-80
2021/05/29 08:49:35;;;;;;;8.98;4.75;;;;;;;;;;5039883;28;20265;-81
2021/05/29 08:52:03;;;;;;;9.75;4.55;;;;;;;;;;5029827;28;20223;-82
2021/05/29 08:54:30;;;;;;;9.45;4.50;;;;;;;;;;5038067;28;20053;-82
2021/05/29 08:56:59;;;;;;;7.78;4.57;;;;;;;;;;5036824;28;20184;-81
2021/05/29 08:59:26;;;;;;;8.32;3.92;;;;;;;;;;5051055;28;20059;-82
2021/05/29 09:01:54;;;;;;;7.20;4.22;;;;;;;;;;5047852;28;20060;-82
2021/05/29 09:04:25;;;;;;;7.90;5.32;;;;;;;;;;5033870;28;20628;-82
2021/05/29 09:06:59;;;;;;;6.50;3.80;;;;;;;;;;5012182;28;20046;-82
2021/05/29 09:09:31;;;;;;;8.82;4.38;;;;;;;;;;5035786;28;20057;-82
2021/05/29 09:12:09;;;;;;;7.43;4.43;;;;;;;;;;5032314;28;20068;-82
2021/05/29 09:14:37;;;;;;;6.80;4.10;;;;;;;;;;5034939;28;20073;-81
2021/05/29 09:17:15;;;;;;;7.55;4.15;;;;;;;;;;5027114;28;20045;-81
2021/05/29 09:19:58;;;;;;;9.90;4.72;;;;;;;;;;5036040;28;20049;-80
2021/05/29 09:22:27;;;;;;;7.35;4.25;;;;;;;;;;5034357;28;20049;-81
2021/05/29 09:25:05;;;;;;;8.85;5.20;;;;;;;;;;5039411;28;20068;-81
2021/05/29 09:27:37;;;;;;;6.70;4.25;;;;;;;;;;5028875;28;20144;-81
2021/05/29 09:30:05;;;;;;;7.07;4.22;;;;;;;;;;5030567;28;20611;-81
2021/05/29 09:32:35;;;;;;;9.75;4.85;;;;;;;;;;5032832;28;20045;-81
2021/05/29 09:35:06;;;;;;;13.32;4.85;;;;;;;;;;5035457;28;20411;-82
2021/05/29 09:37:32;;;;;;;8.20;4.47;;;;;;;;;;5036400;28;20053;-81
2021/05/29 09:40:12;;;;;;;10.65;4.68;;;;;;;;;;5035461;28;20053;-82
2021/05/29 09:42:39;;;;;;;7.93;4.45;;;;;;;;;;5033883;28;20056;-83
2021/05/29 09:45:17;;;;;;;6.47;4.78;;;;;;;;;;5036063;28;20046;-82
2021/05/29 09:48:05;;;;;;;8.60;4.50;;;;;;;;;;5035449;28;20045;-81
2021/05/29 09:50:33;;;;;;;9.52;4.95;;;;;;;;;;5036938;28;20053;-81
2021/05/29 09:52:59;;;;;;;8.98;4.10;;;;;;;;;;5036853;28;20050;-81
2021/05/29 09:55:36;;;;;;;7.88;4.15;;;;;;;;;;5037072;28;20254;-81
2021/05/29 09:58:03;;;;;;;8.48;3.95;;;;;;;;;;5035639;28;20045;-82
2021/05/29 10:00:39;;;;;;;5.82;3.83;;;;;;;;;;5036204;28;20061;-82
2021/05/29 10:03:06;;;;;;;9.07;4.38;;;;;;;;;;5035497;28;20060;-82
2021/05/29 10:05:47;;;;;;;6.18;3.50;;;;;;;;;;5039090;28;20060;-81
2021/05/29 10:08:14;;;;;;;13.13;4.03;;;;;;;;;;5015292;28;20111;-81
2021/05/29 10:10:41;;;;;;;8.98;4.20;;;;;;;;;;5014911;28;20046;-81
2021/05/29 10:13:08;;;;;;;5.53;3.63;;;;;;;;;;5014732;28;20037;-81
2021/05/29 10:15:35;;;;;;;7.95;4.40;;;;;;;;;;5033240;28;20056;-82
2021/05/29 10:18:03;;;;;;;6.72;3.15;;;;;;;;;;5033983;28;20095;-82
2021/05/29 10:20:45;;;;;;;7.78;4.35;;;;;;;;;;5022496;28;20061;-81
2021/05/29 10:23:12;;;;;;;7.43;3.70;;;;;;;;;;5014583;28;20101;-80
2021/05/29 10:25:38;;;;;;;6.07;3.45;;;;;;;;;;5029062;28;20229;-82
2021/05/29 10:28:22;;;;;;;7.97;3.35;;;;;;;;;;5034452;28;20115;-82
2021/05/29 10:30:50;;;;;;;5.95;3.70;;;;;;;;;;5033228;28;20049;-81
2021/05/29 10:33:20;;;;;;;7.28;3.50;;;;;;;;;;5031463;28;20279;-82
2021/05/29 10:35:47;;;;;;;5.68;3.38;;;;;;;;;;5015884;28;20529;-82
2021/05/29 10:38:17;;;;;;;8.13;4.25;;;;;;;;;;5027027;28;20049;-83
2021/05/29 10:40:48;;;;;;;6.72;3.50;;;;;;;;;;5027975;28;20075;-82
2021/05/29 10:43:33;;;;;;;4.65;3.17;;;;;;;;;;5015843;28;20434;-81
2021/05/29 10:46:13;;;;;;;5.30;3.63;;;;;;;;;;5031149;28;20053;-82
2021/05/29 10:48:54;;;;;;;6.85;3.67;;;;;;;;;;5033546;28;20154;-83
2021/05/29 10:51:36;;;;;;;8.15;3.50;;;;;;;;;;5032638;28;20073;-83
2021/05/29 10:54:24;;;;;;;5.82;3.50;;;;;;;;;;5035382;28;20045;-81
2021/05/29 10:56:55;;;;;;;7.55;4.13;;;;;;;;;;5005731;28;20057;-82
2021/05/29 10:59:38;;;;;;;6.95;3.50;;;;;;;;;;5025484;28;20046;-81
2021/05/29 11:02:20;;;;;;;7.65;3.20;;;;;;;;;;5038238;28;20057;-85
2021/05/29 11:06:07;;;;;;;;;;;;;;;;;;;;;
2021/05/29 11:08:38;;;;;;;6.78;4.38;;;;;;;;;;5044904;28;20056;-83
2021/05/29 11:11:42;;;;;;;5.40;3.60;;;;;;;;;;5035693;28;20058;-83
2021/05/29 11:14:42;;;;;;;5.90;4.10;;;;;;;;;;5034301;28;20119;-82
2021/05/29 11:17:10;;;;;;;6.72;3.05;;;;;;;;;;5033453;28;20045;-81
2021/05/29 11:19:37;;;;;;;8.00;3.72;;;;;;;;;;5030308;28;20049;-83
2021/05/29 11:22:32;;;;;;;6.18;3.78;;;;;;;;;;5021992;28;20268;-82
2021/05/29 11:25:03;;;;;;;8.32;4.75;;;;;;;;;;5013585;28;20116;-83
2021/05/29 11:27:34;;;;;;;5.40;3.75;;;;;;;;;;5028055;28;20327;-82
2021/05/29 11:30:20;;;;;;;6.15;4.20;;;;;;;;;;5040080;28;21036;-82
2021/05/29 11:35:29;;;;;;;5.47;4.05;;;;;;;;;;5033230;28;20073;-82
2021/05/29 11:37:59;;;;;;;6.75;3.70;;;;;;;;;;5032202;28;20260;-82
2021/05/29 11:40:47;;;;;;;6.15;3.83;;;;;;;;;;5029313;28;20076;-82
2021/05/29 11:43:14;;;;;;;8.40;4.20;;;;;;;;;;5031099;28;20061;-82
2021/05/29 11:45:43;;;;;;;10.23;5.75;;;;;;;;;;5034906;28;20054;-81
2021/05/29 11:48:10;;;;;;;9.32;4.78;;;;;;;;;;5027960;28;20664;-82
2021/05/29 11:50:40;;;;;;;7.57;4.13;;;;;;;;;;5031044;28;20306;-81
2021/05/29 11:53:07;;;;;;;7.40;3.47;;;;;;;;;;5038954;28;20088;-81
2021/05/29 11:55:54;;;;;;;9.68;3.83;;;;;;;;;;5040408;28;20068;-82
2021/05/29 11:58:20;;;;;;;5.88;3.25;;;;;;;;;;5034382;28;20037;-82
2021/05/29 12:00:58;;;;;;;5.80;3.55;;;;;;;;;;5033933;28;20049;-81
2021/05/29 12:03:35;;;;;;;6.63;2.83;;;;;;;;;;5029501;28;20052;-82
2021/05/29 12:06:01;;;;;;;7.18;3.33;;;;;;;;;;5030261;28;20937;-82
2021/05/29 12:08:28;;;;;;;5.38;2.90;;;;;;;;;;5047408;28;20076;-81
2021/05/29 12:10:55;;;;;;;7.40;3.67;;;;;;;;;;5046608;28;20124;-82
2021/05/29 12:13:23;;;;;;;7.97;3.70;;;;;;;;;;5033532;28;20054;-84
2021/05/29 12:16:00;;;;;;;8.20;4.20;;;;;;;;;;5025093;28;20046;-83
2021/05/29 12:18:39;;;;;;;5.82;3.60;;;;;;;;;;5027021;28;20045;-81
2021/05/29 12:21:07;;;;;;;6.82;3.60;;;;;;;;;;5016705;28;20054;-83
2021/05/29 12:23:55;;;;;;;6.40;3.33;;;;;;;;;;5033651;28;20117;-88
2021/05/29 12:26:23;;;;;;;5.68;2.78;;;;;;;;;;5033146;28;20121;-82
2021/05/29 12:28:50;;;;;;;6.45;3.28;;;;;;;;;;5028620;28;20057;-82
2021/05/29 12:31:18;;;;;;;8.80;3.10;;;;;;;;;;5029267;28;20425;-82
2021/05/29 12:33:45;;;;;;;6.40;3.65;;;;;;;;;;5013621;28;20332;-82
2021/05/29 12:36:14;;;;;;;7.78;3.25;;;;;;;;;;5014588;28;20680;-81
2021/05/29 12:38:54;;;;;;;6.25;3.65;;;;;;;;;;5015938;28;20061;-81
2021/05/29 12:41:24;;;;;;;8.55;4.13;;;;;;;;;;5023682;28;20282;-80
2021/05/29 12:44:01;;;;;;;8.10;3.90;;;;;;;;;;5018664;28;20084;-80
2021/05/29 12:46:28;;;;;;;7.93;3.60;;;;;;;;;;5012026;28;20057;-80
2021/05/29 12:49:06;;;;;;;7.70;4.18;;;;;;;;;;5015418;28;20052;-79
2021/05/29 12:51:43;;;;;;;6.55;3.58;;;;;;;;;;5034696;28;20115;-80
2021/05/29 12:54:10;;;;;;;9.27;4.03;;;;;;;;;;5033446;28;20227;-80
2021/05/29 12:56:49;;;;;;;6.28;3.60;;;;;;;;;;5035857;28;20045;-81
2021/05/29 12:59:17;;;;;;;6.15;3.70;;;;;;;;;;5035095;28;20189;-80
2021/05/29 13:02:34;;;;;;;7.88;4.15;;;;;;;;;;5034586;28;20332;-81
2021/05/29 13:07:43;;;;;;;6.95;3.90;;;;;;;;;;5034860;28;20503;-81
2021/05/29 13:12:57;;;;;;;7.50;3.90;;;;;;;;;;5029654;28;20053;-81
2021/05/29 13:15:26;;;;;;;8.18;3.58;;;;;;;;;;5012717;28;20429;-81
2021/05/29 13:18:09;;;;;;;6.88;4.07;;;;;;;;;;5014919;28;20045;-81
2021/05/29 13:20:37;;;;;;;9.00;3.50;;;;;;;;;;5012863;28;20054;-81
2021/05/29 13:23:04;;;;;;;7.53;3.30;;;;;;;;;;5029568;28;20049;-81
2021/05/29 13:25:38;;;;;;;6.15;3.13;;;;;;;;;;5028863;28;20114;-80
2021/05/29 13:28:16;;;;;;;5.25;3.50;;;;;;;;;;5033816;28;20122;-80
2021/05/29 13:30:45;;;;;;;5.13;3.53;;;;;;;;;;5030462;28;20042;-81
2021/05/29 13:33:12;;;;;;;9.57;3.42;;;;;;;;;;5027745;28;20072;-80
2021/05/29 13:35:40;;;;;;;8.13;3.58;;;;;;;;;;5027927;28;20045;-81
2021/05/29 13:38:07;;;;;;;8.20;3.63;;;;;;;;;;5027484;28;20172;-82
2021/05/29 13:40:35;;;;;;;8.15;4.25;;;;;;;;;;5024299;28;20374;-82
2021/05/29 13:43:08;;;;;;;8.65;3.72;;;;;;;;;;5028994;28;20060;-81
2021/05/29 13:45:35;;;;;;;6.63;3.35;;;;;;;;;;5021719;28;20072;-81
2021/05/29 13:48:03;;;;;;;9.90;3.60;;;;;;;;;;5023006;28;20340;-81
2021/05/29 13:50:57;;;;;;;9.43;3.67;;;;;;;;;;5026179;28;20140;-82
2021/05/29 13:53:23;;;;;;;9.45;3.05;;;;;;;;;;5039137;28;20057;-81
2021/05/29 13:55:50;;;;;;;6.90;4.07;;;;;;;;;;5037481;28;20104;-81
2021/05/29 13:58:17;;;;;;;8.05;3.70;;;;;;;;;;5039722;28;20413;-81
2021/05/29 14:00:47;;;;;;;6.53;3.97;;;;;;;;;;5039058;28;20056;-80
2021/05/29 14:03:14;;;;;;;6.25;4.38;;;;;;;;;;5035189;28;20080;-81
2021/05/29 14:05:42;;;;;;;6.97;3.53;;;;;;;;;;5032824;28;20045;-82
2021/05/29 14:08:09;;;;;;;5.53;3.58;;;;;;;;;;5029246;28;20108;-81
2021/05/29 14:10:36;;;;;;;8.73;4.18;;;;;;;;;;5029440;28;20048;-80
2021/05/29 14:13:02;;;;;;;7.80;3.78;;;;;;;;;;5031393;28;20133;-79
2021/05/29 14:15:29;;;;;;;7.20;3.13;;;;;;;;;;5036453;28;20283;-80
2021/05/29 14:17:56;;;;;;;14.50;3.42;;;;;;;;;;5035473;28;20058;-81
2021/05/29 14:20:23;;;;;;;5.55;3.10;;;;;;;;;;5034609;28;20083;-81
2021/05/29 14:22:49;;;;;;;7.07;2.83;;;;;;;;;;5031239;28;20049;-81
2021/05/29 14:25:16;;;;;;;5.95;3.42;;;;;;;;;;5028627;28;20041;-81
2021/05/29 14:27:43;;;;;;;7.15;3.10;;;;;;;;;;5031150;28;20129;-81
2021/05/29 14:30:10;;;;;;;4.38;3.00;;;;;;;;;;5029347;28;20065;-81
2021/05/29 14:32:38;;;;;;;5.68;2.95;;;;;;;;;;5029252;28;20037;-81
2021/05/29 14:35:08;;;;;;;7.72;3.67;;;;;;;;;;5027337;28;20046;-81
2021/05/29 14:37:35;;;;;;;7.13;3.40;;;;;;;;;;5025246;28;20135;-81
2021/05/29 14:40:03;;;;;;;5.85;3.50;;;;;;;;;;5024628;28;20052;-81
2021/05/29 14:42:31;;;;;;;5.05;3.15;;;;;;;;;;5024121;28;20376;-81
2021/05/29 14:44:58;;;;;;;6.28;3.35;;;;;;;;;;5027150;28;20241;-81
2021/05/29 14:47:27;;;;;;;8.02;4.00;;;;;;;;;;5028322;28;20077;-82
2021/05/29 14:49:54;;;;;;;6.05;3.53;;;;;;;;;;5027350;28;20152;-81
2021/05/29 14:52:27;;;;;;;5.85;3.22;;;;;;;;;;5028255;28;20121;-81
2021/05/29 14:54:54;;;;;;;6.25;3.22;;;;;;;;;;5027732;28;20103;-80
2021/05/29 14:57:24;;;;;;;7.78;3.72;;;;;;;;;;5029913;28;20041;-83
2021/05/29 14:59:51;;;;;;;5.57;3.35;;;;;;;;;;5027366;28;20053;-83
2021/05/29 15:02:18;;;;;;;5.40;3.30;;;;;;;;;;5027947;28;20499;-81
2021/05/29 15:05:18;;;;;;;6.85;3.70;;;;;;;;;;5027215;28;20053;-82
2021/05/29 15:07:38;;;;;;;7.93;4.15;;;;;;;;;;5027340;28;20162;-82
2021/05/29 15:10:05;;;;;;;6.25;3.53;;;;;;;;;;5029754;28;20060;-83
2021/05/29 15:12:31;;;;;;;6.70;3.88;;;;;;;;;;5031706;28;20424;-81
2021/05/29 15:15:08;;;;;;;6.13;3.22;;;;;;;;;;5030399;28;20046;-81